createdAt,value
2019-02-03T00:01:06.594Z,98.00
2019-02-03T00:03:08.419Z,87.60
2019-02-03T00:05:10.522Z,82.55
2019-02-03T00:07:12.482Z,88.87
2019-02-03T00:09:19.284Z,97.17
2019-02-03T00:11:21.200Z,86.90
2019-02-03T00:13:23.026Z,82.90
2019-02-03T00:15:24.873Z,82.02
2019-02-03T00:17:26.625Z,87.62
2019-02-03T00:19:28.357Z,84.32
2019-02-03T00:21:30.292Z,81.22
2019-02-03T00:23:32.019Z,85.50
2019-02-03T00:25:33.746Z,93.78
2019-02-03T00:27:35.586Z,85.60
2019-02-03T00:29:37.297Z,85.50
2019-02-03T00:31:39.114Z,81.72
2019-02-03T00:33:40.838Z,95.30
2019-02-03T00:35:43.134Z,75.70
2019-02-03T00:37:44.963Z,90.57
2019-02-03T00:39:47.642Z,81.22
2019-02-03T00:41:49.602Z,74.05
2019-02-03T00:43:51.657Z,87.72
2019-02-03T00:45:53.368Z,86.90
2019-02-03T00:47:55.281Z,90.57
2019-02-03T00:49:57.174Z,88.07
2019-02-03T00:51:58.977Z,89.50
2019-02-03T00:54:00.909Z,90.70
2019-02-03T00:56:03.221Z,86.72
2019-02-03T00:58:05.152Z,97.12
2019-02-03T01:00:08.546Z,81.97
2019-02-03T01:02:10.456Z,85.30
2019-02-03T01:04:12.282Z,86.37
2019-02-03T01:06:14.068Z,89.95
2019-02-03T01:08:16.073Z,82.97
2019-02-03T01:10:18.830Z,90.77
2019-02-03T01:12:20.967Z,92.95
2019-02-03T01:14:23.037Z,91.10
2019-02-03T01:16:24.845Z,89.90
2019-02-03T01:18:26.566Z,90.17
2019-02-03T01:20:28.559Z,88.03
2019-02-03T01:22:30.382Z,93.78
2019-02-03T01:24:32.326Z,91.85
2019-02-03T01:26:34.503Z,96.75
2019-02-03T01:28:36.226Z,96.95
2019-02-03T01:30:38.253Z,95.92
2019-02-03T01:32:40.074Z,96.97
2019-02-03T01:34:41.812Z,83.87
2019-02-03T01:36:43.646Z,96.97
2019-02-03T01:38:45.373Z,88.50
2019-02-03T01:40:47.188Z,96.08
2019-02-03T01:42:48.991Z,84.85
2019-02-03T01:44:51.227Z,93.25
2019-02-03T01:46:53.029Z,97.20
2019-02-03T01:48:54.839Z,86.80
2019-02-03T01:50:56.640Z,100.97
2019-02-03T01:52:58.605Z,89.60
2019-02-03T01:55:00.410Z,103.65
2019-02-03T01:57:02.757Z,95.40
2019-02-03T01:59:04.979Z,96.12
2019-02-03T02:01:06.788Z,88.62
2019-02-03T02:03:08.676Z,92.60
2019-02-03T02:05:10.922Z,88.17
2019-02-03T02:07:12.725Z,82.57
2019-02-03T02:09:14.450Z,100.42
2019-02-03T02:11:16.272Z,95.17
2019-02-03T02:13:18.000Z,93.35
2019-02-03T02:15:19.950Z,100.47
2019-02-03T02:17:22.002Z,82.88
2019-02-03T02:19:23.705Z,83.90
2019-02-03T02:21:25.441Z,90.28
2019-02-03T02:23:27.260Z,89.75
2019-02-03T02:25:29.484Z,100.38
2019-02-03T02:27:31.201Z,92.47
2019-02-03T02:29:33.132Z,84.30
2019-02-03T02:31:34.893Z,82.15
2019-02-03T02:33:36.920Z,77.30
2019-02-03T02:35:39.070Z,83.03
2019-02-03T02:37:40.892Z,85.17
2019-02-03T02:39:42.738Z,83.00
2019-02-03T02:41:44.546Z,96.50
2019-02-03T02:43:46.287Z,78.25
2019-02-03T02:45:48.134Z,94.40
2019-02-03T02:47:50.338Z,90.80
2019-02-03T02:49:52.049Z,85.80
2019-02-03T02:51:53.798Z,79.65
2019-02-03T02:53:58.786Z,86.72
2019-02-03T02:55:59.539Z,88.12
2019-02-03T02:58:01.480Z,84.95
2019-02-03T03:00:05.193Z,85.07
2019-02-03T03:02:07.056Z,92.00
2019-02-03T03:04:08.885Z,78.57
2019-02-03T03:06:10.818Z,80.12
2019-02-03T03:08:19.150Z,86.05
2019-02-03T03:10:17.116Z,74.95
2019-02-03T03:12:18.950Z,80.92
2019-02-03T03:14:20.878Z,72.75
2019-02-03T03:16:22.594Z,87.57
2019-02-03T03:18:24.330Z,84.62
2019-02-03T03:20:26.315Z,79.75
2019-02-03T03:22:28.397Z,80.85
2019-02-03T03:24:31.201Z,66.40
2019-02-03T03:26:33.171Z,79.58
2019-02-03T03:28:35.100Z,70.37
2019-02-03T03:30:36.947Z,67.22
2019-02-03T03:32:38.815Z,79.65
2019-02-03T03:34:40.606Z,73.37
2019-02-03T03:36:42.433Z,83.35
2019-02-03T03:38:44.173Z,71.37
2019-02-03T03:40:46.111Z,76.47
2019-02-03T03:42:48.113Z,75.87
2019-02-03T03:44:49.952Z,81.15
2019-02-03T03:46:51.686Z,70.20
2019-02-03T03:48:53.421Z,78.70
2019-02-03T03:50:55.470Z,70.35
2019-02-03T03:52:57.345Z,78.85
2019-02-03T03:54:59.533Z,83.17
2019-02-03T03:57:01.510Z,69.07
2019-02-03T03:59:03.459Z,72.40
2019-02-03T04:01:05.287Z,76.92
2019-02-03T04:03:07.053Z,76.28
2019-02-03T04:05:09.223Z,70.55
2019-02-03T04:07:11.170Z,74.72
2019-02-03T04:09:13.805Z,66.65
2019-02-03T04:11:15.727Z,63.08
2019-02-03T04:13:17.531Z,63.38
2019-02-03T04:15:19.770Z,60.03
2019-02-03T04:17:21.640Z,64.85
2019-02-03T04:19:23.448Z,70.97
2019-02-03T04:21:25.305Z,68.60
2019-02-03T04:23:27.135Z,65.00
2019-02-03T04:25:28.855Z,72.00
2019-02-03T04:27:30.982Z,67.05
2019-02-03T04:29:32.997Z,59.85
2019-02-03T04:31:34.740Z,71.07
2019-02-03T04:33:36.512Z,67.47
2019-02-03T04:35:38.282Z,69.17
2019-02-03T04:37:40.122Z,59.55
2019-02-03T04:39:41.954Z,64.27
2019-02-03T04:41:43.818Z,69.60
2019-02-03T04:43:45.552Z,52.43
2019-02-03T04:45:47.577Z,62.30
2019-02-03T04:47:49.473Z,61.28
2019-02-03T04:49:51.330Z,52.95
2019-02-03T04:51:53.100Z,53.95
2019-02-03T04:53:54.854Z,54.83
2019-02-03T04:55:56.806Z,55.08
2019-02-03T04:57:58.754Z,53.15
2019-02-03T05:00:00.545Z,59.18
2019-02-03T05:02:02.333Z,50.08
2019-02-03T05:04:04.565Z,55.78
2019-02-03T05:06:06.316Z,51.48
2019-02-03T05:08:08.089Z,53.42
2019-02-03T05:10:10.635Z,56.02
2019-02-03T05:12:12.435Z,49.42
2019-02-03T05:14:14.153Z,51.55
2019-02-03T05:16:15.922Z,50.25
2019-02-03T05:18:17.672Z,51.92
2019-02-03T05:20:22.023Z,57.43
2019-02-03T05:22:23.890Z,52.85
2019-02-03T05:24:25.928Z,55.15
2019-02-03T05:26:27.894Z,52.90
2019-02-03T05:28:29.826Z,53.73
2019-02-03T05:30:32.865Z,48.08
2019-02-03T05:32:34.923Z,53.85
2019-02-03T05:34:36.715Z,50.88
2019-02-03T05:36:38.460Z,50.73
2019-02-03T05:38:40.201Z,44.95
2019-02-03T05:40:41.918Z,52.23
2019-02-03T05:42:43.921Z,42.35
2019-02-03T05:44:45.686Z,52.67
2019-02-03T05:46:47.630Z,45.60
2019-02-03T05:48:49.359Z,41.35
2019-02-03T05:50:51.634Z,54.63
2019-02-03T05:52:53.411Z,48.33
2019-02-03T05:54:55.167Z,49.55
2019-02-03T05:56:56.917Z,45.83
2019-02-03T05:58:58.777Z,45.10
2019-02-03T06:01:00.608Z,40.58
2019-02-03T06:03:02.480Z,40.83
2019-02-03T06:05:04.690Z,47.38
2019-02-03T06:07:06.401Z,35.98
2019-02-03T06:09:08.746Z,41.63
2019-02-03T06:11:10.514Z,45.65
2019-02-03T06:13:12.429Z,46.60
2019-02-03T06:15:14.593Z,41.92
2019-02-03T06:17:16.447Z,38.75
2019-02-03T06:19:18.230Z,41.53
2019-02-03T06:21:20.134Z,39.42
2019-02-03T06:23:22.049Z,37.23
2019-02-03T06:25:23.935Z,44.23
2019-02-03T06:27:25.961Z,43.02
2019-02-03T06:29:27.864Z,38.17
2019-02-03T06:31:29.717Z,40.35
2019-02-03T06:33:31.443Z,45.48
2019-02-03T06:35:33.561Z,41.48
2019-02-03T06:37:35.599Z,37.30
2019-02-03T06:39:47.926Z,37.67
2019-02-03T06:41:41.319Z,35.25
2019-02-03T06:43:43.066Z,41.33
2019-02-03T06:46:10.610Z,43.68
2019-02-03T06:48:14.397Z,38.75
2019-02-03T06:50:16.293Z,34.33
2019-02-03T06:52:18.992Z,36.98
2019-02-03T06:54:20.727Z,38.02
2019-02-03T06:56:22.571Z,40.75
2019-02-03T06:58:24.505Z,41.10
2019-02-03T07:00:26.643Z,33.92
2019-02-03T07:02:28.363Z,37.40
2019-02-03T07:04:30.095Z,33.02
2019-02-03T07:06:31.828Z,39.65
2019-02-03T07:08:33.577Z,39.63
2019-02-03T07:10:35.604Z,42.58
2019-02-03T07:12:37.322Z,43.05
2019-02-03T07:14:39.058Z,37.38
2019-02-03T07:16:44.458Z,36.42
2019-02-03T07:18:44.541Z,35.68
2019-02-03T07:20:46.307Z,38.70
2019-02-03T07:22:48.140Z,38.55
2019-02-03T07:24:50.069Z,37.50
2019-02-03T07:26:51.927Z,40.03
2019-02-03T07:28:53.709Z,35.83
2019-02-03T07:30:55.856Z,37.58
2019-02-03T07:32:57.697Z,38.50
2019-02-03T07:34:59.480Z,36.42
2019-02-03T07:37:01.659Z,41.50
2019-02-03T07:39:06.689Z,36.33
2019-02-03T07:41:08.459Z,44.27
2019-02-03T07:43:10.468Z,41.75
2019-02-03T07:45:12.521Z,51.30
2019-02-03T07:47:14.578Z,84.72
2019-02-03T07:49:16.349Z,51.98
2019-02-03T07:51:18.078Z,39.53
2019-02-03T07:53:19.830Z,35.80
2019-02-03T07:55:21.684Z,35.35
2019-02-03T07:57:23.781Z,36.13
2019-02-03T07:59:25.626Z,33.38
2019-02-03T08:01:27.740Z,38.95
2019-02-03T08:03:29.678Z,39.33
2019-02-03T08:05:31.525Z,40.75
2019-02-03T08:07:33.311Z,35.55
2019-02-03T08:09:35.070Z,34.50
2019-02-03T08:11:37.056Z,29.98
2019-02-03T08:13:39.002Z,48.35
2019-02-03T08:15:40.775Z,67.80
2019-02-03T08:17:42.677Z,43.45
2019-02-03T08:19:44.404Z,36.73
2019-02-03T08:21:46.253Z,34.43
2019-02-03T08:23:51.185Z,31.87
2019-02-03T08:25:51.950Z,39.42
2019-02-03T08:27:53.804Z,37.95
2019-02-03T08:29:55.560Z,28.65
2019-02-03T08:31:57.610Z,34.50
2019-02-03T08:33:59.557Z,35.88
2019-02-03T08:36:01.539Z,35.68
2019-02-03T08:38:03.498Z,36.23
2019-02-03T08:40:07.877Z,35.73
2019-02-03T08:42:09.976Z,39.30
2019-02-03T08:44:11.839Z,34.38
2019-02-03T08:46:13.661Z,34.95
2019-02-03T08:48:15.582Z,33.67
2019-02-03T08:50:18.297Z,38.35
2019-02-03T08:52:20.081Z,34.80
2019-02-03T08:54:21.820Z,33.40
2019-02-03T08:56:23.570Z,33.08
2019-02-03T08:58:25.327Z,33.15
2019-02-03T09:00:43.593Z,33.20
2019-02-03T09:02:46.216Z,85.77
2019-02-03T09:04:48.418Z,59.98
2019-02-03T09:06:50.180Z,33.65
2019-02-03T09:08:51.917Z,29.30
2019-02-03T09:10:53.981Z,34.65
2019-02-03T09:12:56.189Z,32.58
2019-02-03T09:14:58.006Z,29.92
2019-02-03T09:16:59.854Z,33.45
2019-02-03T09:19:01.637Z,35.05
2019-02-03T09:21:43.346Z,48.48
2019-02-03T09:23:45.458Z,75.80
2019-02-03T09:25:47.620Z,41.80
2019-02-03T09:27:49.622Z,27.62
2019-02-03T09:29:51.452Z,25.23
2019-02-03T09:31:53.329Z,27.00
2019-02-03T09:33:55.139Z,28.12
2019-02-03T09:35:57.449Z,27.58
2019-02-03T09:37:59.741Z,26.02
2019-02-03T09:40:01.749Z,28.38
2019-02-03T09:42:04.013Z,24.60
2019-02-03T09:44:06.009Z,22.93
2019-02-03T09:46:07.868Z,21.85
2019-02-03T09:48:09.645Z,21.97
2019-02-03T09:50:17.301Z,25.30
2019-02-03T09:52:19.037Z,20.50
2019-02-03T09:54:20.761Z,22.80
2019-02-03T09:56:23.001Z,24.55
2019-02-03T09:58:25.019Z,21.60
2019-02-03T10:00:28.986Z,17.98
2019-02-03T10:02:30.867Z,17.75
2019-02-03T10:04:32.891Z,20.72
2019-02-03T10:06:34.933Z,20.12
2019-02-03T10:08:40.662Z,139.18
2019-02-03T10:10:40.977Z,48.52
2019-02-03T10:12:42.739Z,22.15
2019-02-03T10:14:44.894Z,18.60
2019-02-03T10:16:47.634Z,17.52
2019-02-03T10:18:49.611Z,18.20
2019-02-03T10:20:51.626Z,12.60
2019-02-03T10:22:53.588Z,14.93
2019-02-03T10:24:55.461Z,15.83
2019-02-03T10:26:58.750Z,13.83
2019-02-03T10:29:02.817Z,16.43
2019-02-03T10:31:04.651Z,13.50
2019-02-03T10:33:06.861Z,14.57
2019-02-03T10:35:23.095Z,15.63
2019-02-03T10:37:18.983Z,16.60
2019-02-03T10:39:20.838Z,39.53
2019-02-03T10:41:24.415Z,86.07
2019-02-03T10:43:26.754Z,33.80
2019-02-03T10:45:29.126Z,30.10
2019-02-03T10:47:31.320Z,13.73
2019-02-03T10:49:33.228Z,13.17
2019-02-03T10:51:38.039Z,9.60
2019-02-03T10:53:39.950Z,10.17
2019-02-03T10:55:42.085Z,10.87
2019-02-03T10:57:44.589Z,9.90
2019-02-03T10:59:46.366Z,11.80
2019-02-03T11:01:48.425Z,8.93
2019-02-03T11:03:50.164Z,8.33
2019-02-03T11:05:53.673Z,10.73
2019-02-03T11:07:55.752Z,7.90
2019-02-03T11:09:57.921Z,8.50
2019-02-03T11:12:01.123Z,9.20
2019-02-03T11:14:03.553Z,11.43
2019-02-03T11:16:05.724Z,7.57
2019-02-03T11:18:08.827Z,9.03
2019-02-03T11:20:20.701Z,8.87
2019-02-03T11:22:22.418Z,8.80
2019-02-03T11:24:26.629Z,8.10
2019-02-03T11:26:28.585Z,7.63
2019-02-03T11:28:30.410Z,7.90
2019-02-03T11:30:32.632Z,8.40
2019-02-03T11:32:34.542Z,9.87
2019-02-03T11:34:39.209Z,8.17
2019-02-03T11:36:41.496Z,12.97
2019-02-03T11:38:43.399Z,11.10
2019-02-03T11:40:45.308Z,9.20
2019-02-03T11:42:50.332Z,10.93
2019-02-03T11:44:52.231Z,9.37
2019-02-03T11:46:54.078Z,10.40
2019-02-03T11:48:56.374Z,7.50
2019-02-03T11:50:58.391Z,8.43
2019-02-03T11:53:00.569Z,8.53
2019-02-03T11:55:05.709Z,8.50
2019-02-03T11:57:07.998Z,8.13
2019-02-03T11:59:10.263Z,7.70
2019-02-03T12:01:16.409Z,7.93
2019-02-03T12:04:45.530Z,8.13
2019-02-03T12:07:11.988Z,10.53
2019-02-03T12:09:10.159Z,9.80
2019-02-03T12:11:12.212Z,8.20
2019-02-03T12:13:14.133Z,11.27
2019-02-03T12:15:19.280Z,7.07
2019-02-03T12:17:21.134Z,6.97
2019-02-03T12:19:23.287Z,7.43
2019-02-03T12:21:25.210Z,8.00
2019-02-03T12:23:28.440Z,9.57
2019-02-03T12:25:33.566Z,8.23
2019-02-03T12:27:35.453Z,8.90
2019-02-03T12:29:39.776Z,7.40
2019-02-03T12:31:41.827Z,9.40
2019-02-03T12:33:46.790Z,8.47
2019-02-03T12:35:48.796Z,8.57
2019-02-03T12:37:51.599Z,7.87
2019-02-03T12:39:53.388Z,7.73
2019-02-03T12:41:55.313Z,9.07
2019-02-03T12:43:57.192Z,7.70
2019-02-03T12:45:59.181Z,7.73
2019-02-03T12:48:01.394Z,8.80
2019-02-03T12:50:07.644Z,7.73
2019-02-03T12:52:09.509Z,8.27
2019-02-03T12:54:11.647Z,10.07
2019-02-03T12:56:13.670Z,9.43
2019-02-03T12:58:15.799Z,7.63
2019-02-03T13:00:21.489Z,8.73
2019-02-03T13:02:23.698Z,8.03
2019-02-03T13:04:25.555Z,7.10
2019-02-03T13:06:29.092Z,8.63
2019-02-03T13:08:31.423Z,9.30
2019-02-03T13:10:37.127Z,7.90
2019-02-03T13:12:41.778Z,9.23
2019-02-03T13:14:43.715Z,7.13
2019-02-03T13:16:45.967Z,7.00
2019-02-03T13:18:47.835Z,9.00
2019-02-03T13:20:52.536Z,8.10
2019-02-03T13:22:55.506Z,6.93
2019-02-03T13:24:57.317Z,7.20
2019-02-03T13:27:01.349Z,7.80
2019-02-03T13:29:03.506Z,8.00
2019-02-03T13:31:05.446Z,6.60
2019-02-03T13:33:07.486Z,9.10
2019-02-03T13:35:09.502Z,8.50
2019-02-03T13:37:33.946Z,11.10
2019-02-03T13:39:36.344Z,9.10
2019-02-03T13:41:41.130Z,8.30
2019-02-03T13:43:43.568Z,7.23
2019-02-03T13:45:47.014Z,9.13
2019-02-03T13:47:49.079Z,8.90
2019-02-03T13:49:51.235Z,7.30
2019-02-03T13:51:55.187Z,8.10
2019-02-03T13:53:57.098Z,8.17
2019-02-03T13:55:59.096Z,8.00
2019-02-03T13:58:01.078Z,7.03
2019-02-03T14:00:06.046Z,7.13
2019-02-03T14:02:08.370Z,8.27
2019-02-03T14:04:11.411Z,7.60
2019-02-03T14:06:13.358Z,7.10
2019-02-03T14:08:15.331Z,7.00
2019-02-03T14:10:23.142Z,7.70
2019-02-03T14:12:25.150Z,8.17
2019-02-03T14:14:26.946Z,8.90
2019-02-03T14:16:28.930Z,7.57
2019-02-03T14:18:30.720Z,9.90
2019-02-03T14:20:33.320Z,10.20
2019-02-03T14:22:35.614Z,7.63
2019-02-03T14:24:38.396Z,9.20
2019-02-03T14:26:40.687Z,7.00
2019-02-03T14:28:43.062Z,8.17
2019-02-03T14:30:45.555Z,8.13
2019-02-03T14:32:47.450Z,7.23
2019-02-03T14:34:49.399Z,7.83
2019-02-03T14:36:51.280Z,10.97
2019-02-03T14:38:53.174Z,8.30
2019-02-03T14:40:54.972Z,8.90
2019-02-03T14:43:01.863Z,9.20
2019-02-03T14:45:00.722Z,8.90
2019-02-03T14:47:02.885Z,9.73
2019-02-03T14:49:05.242Z,12.40
2019-02-03T14:51:07.287Z,7.63
2019-02-03T14:53:11.629Z,8.63
2019-02-03T14:55:15.378Z,7.87
2019-02-03T14:57:17.290Z,12.43
2019-02-03T14:59:19.490Z,7.80
2019-02-03T15:01:21.395Z,8.57
2019-02-03T15:03:25.157Z,8.50
2019-02-03T15:05:27.315Z,9.03
2019-02-03T15:07:37.526Z,10.20
2019-02-03T15:09:32.980Z,10.20
2019-02-03T15:11:34.752Z,11.00
2019-02-03T15:13:36.857Z,11.63
2019-02-03T15:15:38.831Z,9.87
2019-02-03T15:17:40.989Z,10.60
2019-02-03T15:19:42.884Z,11.60
2019-02-03T15:21:44.681Z,9.47
2019-02-03T15:23:46.646Z,12.63
2019-02-03T15:25:48.660Z,11.80
2019-02-03T15:27:50.747Z,12.47
2019-02-03T15:29:52.900Z,13.73
2019-02-03T15:31:54.694Z,12.50
2019-02-03T15:33:56.482Z,12.10
2019-02-03T15:35:58.433Z,12.63
2019-02-03T15:38:00.662Z,13.10
2019-02-03T15:40:03.082Z,12.93
2019-02-03T15:42:05.015Z,10.93
2019-02-03T15:44:07.168Z,11.90
2019-02-03T15:46:08.922Z,12.67
2019-02-03T15:48:18.087Z,12.27
2019-02-03T15:50:27.262Z,10.20
2019-02-03T15:52:30.740Z,13.63
2019-02-03T15:54:36.778Z,11.20
2019-02-03T15:56:40.169Z,10.47
2019-02-03T15:58:42.122Z,14.87
2019-02-03T16:00:49.155Z,10.60
2019-02-03T16:02:51.143Z,10.70
2019-02-03T16:04:53.345Z,12.20
2019-02-03T16:06:55.056Z,13.23
2019-02-03T16:08:56.805Z,14.30
2019-02-03T16:10:59.517Z,11.80
2019-02-03T16:13:01.393Z,12.70
2019-02-03T16:15:04.481Z,12.43
2019-02-03T16:17:06.296Z,13.70
2019-02-03T16:19:08.464Z,12.00
2019-02-03T16:21:10.270Z,12.80
2019-02-03T16:23:11.994Z,13.25
2019-02-03T16:25:14.077Z,15.18
2019-02-03T16:27:15.794Z,13.55
2019-02-03T16:29:17.748Z,13.30
2019-02-03T16:31:19.578Z,17.50
2019-02-03T16:33:21.395Z,9.65
2019-02-03T16:35:23.225Z,44.90
2019-02-03T16:37:25.097Z,41.58
2019-02-03T16:39:29.567Z,15.55
2019-02-03T16:41:30.889Z,11.35
2019-02-03T16:43:32.598Z,10.43
2019-02-03T16:45:34.617Z,9.58
2019-02-03T16:47:36.911Z,9.58
2019-02-03T16:49:39.007Z,10.55
2019-02-03T16:51:41.584Z,10.80
2019-02-03T16:53:46.634Z,8.15
2019-02-03T16:55:58.716Z,10.25
2019-02-03T16:58:01.109Z,10.58
2019-02-03T17:00:06.990Z,11.85
2019-02-03T17:02:09.077Z,9.98
2019-02-03T17:04:10.885Z,12.68
2019-02-03T17:06:13.355Z,11.57
2019-02-03T17:08:15.245Z,10.55
2019-02-03T17:10:18.913Z,9.53
2019-02-03T17:12:21.186Z,10.10
2019-02-03T17:14:23.311Z,11.55
2019-02-03T17:16:25.509Z,40.70
2019-02-03T17:19:09.320Z,33.88
2019-02-03T17:21:11.071Z,16.65
2019-02-03T17:23:14.300Z,9.78
2019-02-03T17:25:17.687Z,11.05
2019-02-03T17:27:20.112Z,6.67
2019-02-03T17:29:22.189Z,18.37
2019-02-03T17:31:24.042Z,17.50
2019-02-03T17:33:25.980Z,17.95
2019-02-03T17:35:28.371Z,10.20
2019-02-03T17:37:30.393Z,8.25
2019-02-03T17:39:32.315Z,10.03
2019-02-03T17:41:34.742Z,7.78
2019-02-03T17:43:36.884Z,7.25
2019-02-03T17:45:38.830Z,10.63
2019-02-03T17:47:40.640Z,11.43
2019-02-03T17:49:42.395Z,10.45
2019-02-03T17:51:44.502Z,7.78
2019-02-03T17:53:46.309Z,11.03
2019-02-03T17:55:48.076Z,9.88
2019-02-03T17:57:50.049Z,57.08
2019-02-03T17:59:52.395Z,19.02
2019-02-03T18:01:54.532Z,8.83
2019-02-03T18:03:56.464Z,11.60
2019-02-03T18:05:58.292Z,9.63
2019-02-03T18:08:00.021Z,10.38
2019-02-03T18:10:02.242Z,10.60
2019-02-03T18:12:04.344Z,7.72
2019-02-03T18:14:06.193Z,9.23
2019-02-03T18:16:07.907Z,11.12
2019-02-03T18:18:13.589Z,6.90
2019-02-03T18:20:18.986Z,8.90
2019-02-03T18:22:20.942Z,10.53
2019-02-03T18:24:22.663Z,11.20
2019-02-03T18:26:24.555Z,17.25
2019-02-03T18:28:26.457Z,6.47
2019-02-03T18:30:28.405Z,10.00
2019-02-03T18:32:30.325Z,12.23
2019-02-03T18:34:32.076Z,8.43
2019-02-03T18:36:33.870Z,10.43
2019-02-03T18:38:35.601Z,10.00
2019-02-03T18:40:37.518Z,6.97
2019-02-03T18:42:39.363Z,7.70
2019-02-03T18:44:41.095Z,10.25
2019-02-03T18:46:43.186Z,9.88
2019-02-03T18:48:47.625Z,7.17
2019-02-03T18:50:49.434Z,15.53
2019-02-03T18:52:51.281Z,11.63
2019-02-03T18:54:55.722Z,9.53
2019-02-03T18:56:57.867Z,9.40
2019-02-03T18:58:59.640Z,7.03
2019-02-03T19:01:01.594Z,8.15
2019-02-03T19:03:04.145Z,9.08
2019-02-03T19:05:07.549Z,8.75
2019-02-03T19:07:09.480Z,9.50
2019-02-03T19:09:11.320Z,10.63
2019-02-03T19:11:13.230Z,9.20
2019-02-03T19:13:15.044Z,10.78
2019-02-03T19:15:17.538Z,10.10
2019-02-03T19:17:19.241Z,9.48
2019-02-03T19:19:21.057Z,12.33
2019-02-03T19:21:22.910Z,11.57
2019-02-03T19:23:26.025Z,11.03
2019-02-03T19:25:27.906Z,11.75
2019-02-03T19:27:29.642Z,11.95
2019-02-03T19:29:33.882Z,13.00
2019-02-03T19:31:35.704Z,12.93
2019-02-03T19:33:37.537Z,13.85
2019-02-03T19:35:39.289Z,12.20
2019-02-03T19:37:41.229Z,11.85
2019-02-03T19:39:43.065Z,12.05
2019-02-03T19:41:44.791Z,10.82
2019-02-03T19:43:46.933Z,12.30
2019-02-03T19:45:48.694Z,8.15
2019-02-03T19:47:50.603Z,12.82
2019-02-03T19:49:52.305Z,14.15
2019-02-03T19:51:54.305Z,8.35
2019-02-03T19:53:56.131Z,7.40
2019-02-03T19:55:57.953Z,10.03
2019-02-03T19:57:59.785Z,9.75
2019-02-03T20:00:01.494Z,22.32
2019-02-03T20:02:03.608Z,45.25
2019-02-03T20:04:05.313Z,39.50
2019-02-03T20:06:07.406Z,20.00
2019-02-03T20:08:09.334Z,15.25
2019-02-03T20:10:13.225Z,8.93
2019-02-03T20:12:15.030Z,11.45
2019-02-03T20:14:16.733Z,10.30
2019-02-03T20:16:18.478Z,12.60
2019-02-03T20:18:22.424Z,11.30
2019-02-03T20:20:27.470Z,13.75
2019-02-03T20:22:29.227Z,10.85
2019-02-03T20:24:30.949Z,9.68
2019-02-03T20:26:32.684Z,12.10
2019-02-03T20:28:34.499Z,10.48
2019-02-03T20:30:39.090Z,11.00
2019-02-03T20:32:40.125Z,15.80
2019-02-03T20:34:41.848Z,15.63
2019-02-03T20:36:43.830Z,12.40
2019-02-03T20:38:47.099Z,6.50
2019-02-03T20:40:48.994Z,6.40
2019-02-03T20:42:50.925Z,10.30
2019-02-03T20:44:52.674Z,14.20
2019-02-03T20:46:54.401Z,12.00
2019-02-03T20:48:56.125Z,13.93
2019-02-03T20:50:57.951Z,13.38
2019-02-03T20:52:59.763Z,9.98
2019-02-03T20:55:01.741Z,13.25
2019-02-03T20:57:04.342Z,13.25
2019-02-03T20:59:06.259Z,8.28
2019-02-03T21:01:08.190Z,14.45
2019-02-03T21:03:10.199Z,7.87
2019-02-03T21:05:12.147Z,9.55
2019-02-03T21:07:13.883Z,13.55
2019-02-03T21:09:15.705Z,16.30
2019-02-03T21:11:17.654Z,9.38
2019-02-03T21:13:19.510Z,10.40
2019-02-03T21:15:32.454Z,10.95
2019-02-03T21:17:26.261Z,9.60
2019-02-03T21:19:27.997Z,11.15
2019-02-03T21:21:29.821Z,19.95
2019-02-03T21:23:31.686Z,15.23
2019-02-03T21:25:33.508Z,13.78
2019-02-03T21:27:35.434Z,11.10
2019-02-03T21:29:37.507Z,9.78
2019-02-03T21:31:39.245Z,13.10
2019-02-03T21:33:41.562Z,7.45
2019-02-03T21:35:43.365Z,10.10
2019-02-03T21:37:45.346Z,10.60
2019-02-03T21:39:47.162Z,12.55
2019-02-03T21:41:48.886Z,10.13
2019-02-03T21:43:50.936Z,9.15
2019-02-03T21:45:54.143Z,11.00
2019-02-03T21:47:56.232Z,16.23
2019-02-03T21:49:58.109Z,10.53
2019-02-03T21:52:00.034Z,11.88
2019-02-03T21:54:02.232Z,12.98
2019-02-03T21:56:04.157Z,13.70
2019-02-03T21:58:05.893Z,10.30
2019-02-03T22:00:14.303Z,13.15
2019-02-03T22:02:17.769Z,17.27
2019-02-03T22:04:19.845Z,10.95
2019-02-03T22:06:21.646Z,9.55
2019-02-03T22:08:23.553Z,9.90
2019-02-03T22:10:27.406Z,10.35
2019-02-03T22:12:29.158Z,16.17
2019-02-03T22:14:31.139Z,17.27
2019-02-03T22:16:32.949Z,11.43
2019-02-03T22:18:34.646Z,13.13
2019-02-03T22:20:36.562Z,8.45
2019-02-03T22:22:38.297Z,11.33
2019-02-03T22:24:40.130Z,11.95
2019-02-03T22:26:42.020Z,8.55
2019-02-03T22:28:43.771Z,10.40
2019-02-03T22:30:45.690Z,9.28
2019-02-03T22:32:47.739Z,11.43
2019-02-03T22:34:49.451Z,10.48
2019-02-03T22:36:51.448Z,9.05
2019-02-03T22:38:53.313Z,14.28
2019-02-03T22:40:55.450Z,6.78
2019-02-03T22:42:57.400Z,9.90
2019-02-03T22:44:59.237Z,9.83
2019-02-03T22:47:02.458Z,12.73
2019-02-03T22:49:05.246Z,8.70
2019-02-03T22:51:07.064Z,6.67
2019-02-03T22:53:08.878Z,8.68
2019-02-03T22:55:10.912Z,7.40
2019-02-03T22:57:12.665Z,6.53
2019-02-03T22:59:14.377Z,9.53
2019-02-03T23:01:21.885Z,11.03
2019-02-03T23:03:32.450Z,9.95
2019-02-03T23:05:34.146Z,9.65
2019-02-03T23:07:35.892Z,11.10
2019-02-03T23:09:38.316Z,6.37
2019-02-03T23:11:40.102Z,10.70
2019-02-03T23:13:41.939Z,13.20
2019-02-03T23:15:43.756Z,9.35
2019-02-03T23:17:45.462Z,7.40
2019-02-03T23:19:47.177Z,9.15
2019-02-03T23:21:48.882Z,11.35
2019-02-03T23:23:50.886Z,14.73
2019-02-03T23:25:52.833Z,7.95
2019-02-03T23:27:54.837Z,10.85
2019-02-03T23:29:56.549Z,11.90
2019-02-03T23:31:58.389Z,14.85
2019-02-03T23:34:00.096Z,13.70
2019-02-03T23:36:01.914Z,11.33
2019-02-03T23:38:03.846Z,10.82
2019-02-03T23:40:06.190Z,11.53
2019-02-03T23:42:08.266Z,9.30
2019-02-03T23:44:10.109Z,14.07
2019-02-03T23:46:11.805Z,10.40
2019-02-03T23:48:13.537Z,19.12
2019-02-03T23:50:15.586Z,9.23
2019-02-03T23:52:17.289Z,19.52
2019-02-03T23:54:19.189Z,13.35
2019-02-03T23:56:24.114Z,7.97
2019-02-03T23:58:26.102Z,13.22
